Time;durP1;ratioP1;P1;durP2;ratioP2;P2;SDS_P1;SDS_P2;PMS_P1;PMS_P2;Temp;Humidity;BMP_temperature;BMP_pressure;BME280_temperature;BME280_humidity;BME280_pressure;Samples;Min_cycle;Max_cycle;Signal;HPM_P1;HPM_P2
2023/07/08 00:00:47;;;;;;;9.93;3.75;;;18.50;99.90;;;;;;5033596;28;20056;-71
2023/07/08 00:03:14;;;;;;;7.70;3.50;;;18.50;99.90;;;;;;5032301;28;20053;-71
2023/07/08 00:05:40;;;;;;;6.33;3.23;;;18.50;99.90;;;;;;5033390;28;20354;-71
2023/07/08 00:08:15;;;;;;;9.33;4.53;;;18.50;99.90;;;;;;5033368;28;20045;-71
2023/07/08 00:10:41;;;;;;;9.50;4.07;;;18.50;99.90;;;;;;5033328;28;20045;-71
2023/07/08 00:13:08;;;;;;;6.20;3.37;;;18.40;99.90;;;;;;5033141;28;20041;-71
2023/07/08 00:15:36;;;;;;;8.10;3.70;;;18.50;99.90;;;;;;5032699;28;20485;-71
2023/07/08 00:18:13;;;;;;;8.67;3.83;;;18.40;99.90;;;;;;5031744;28;20084;-71
2023/07/08 00:20:43;;;;;;;6.47;3.63;;;18.40;99.90;;;;;;5032806;28;20122;-71
2023/07/08 00:23:09;;;;;;;6.93;3.57;;;18.40;99.90;;;;;;5033156;28;20159;-71
2023/07/08 00:25:35;;;;;;;6.20;3.67;;;18.30;99.90;;;;;;5032839;28;20430;-71
2023/07/08 00:28:01;;;;;;;10.07;3.43;;;18.30;99.90;;;;;;5033225;28;20131;-71
2023/07/08 00:30:29;;;;;;;7.80;3.93;;;18.30;99.90;;;;;;5032516;28;20053;-71
2023/07/08 00:32:56;;;;;;;8.40;3.57;;;18.30;99.90;;;;;;5032918;28;20049;-71
2023/07/08 00:35:22;;;;;;;6.50;3.13;;;18.30;99.90;;;;;;5032693;28;20128;-71
2023/07/08 00:37:52;;;;;;;7.17;4.30;;;18.20;99.90;;;;;;5032822;28;20083;-71
2023/07/08 00:40:21;;;;;;;9.00;3.63;;;18.20;99.90;;;;;;5032613;28;20496;-71
2023/07/08 00:42:48;;;;;;;11.03;3.97;;;18.20;99.90;;;;;;5033159;28;20524;-71
2023/07/08 00:45:35;;;;;;;7.73;3.63;;;18.10;99.90;;;;;;5032879;28;20049;-72
2023/07/08 00:48:19;;;;;;;8.47;3.70;;;18.10;99.90;;;;;;5032692;28;20049;-71
2023/07/08 00:50:45;;;;;;;6.90;3.57;;;18.10;99.90;;;;;;5032654;28;20457;-71
2023/07/08 00:53:33;;;;;;;9.20;4.00;;;18.10;99.90;;;;;;5032650;28;20336;-71
2023/07/08 00:56:23;;;;;;;9.00;4.00;;;18.00;99.90;;;;;;5033132;28;20088;-71
2023/07/08 00:58:55;;;;;;;7.20;3.57;;;18.00;99.90;;;;;;5032258;28;20057;-71
2023/07/08 01:01:21;;;;;;;7.60;3.77;;;17.90;99.90;;;;;;5032504;28;20049;-71
2023/07/08 01:04:03;;;;;;;11.30;4.70;;;17.90;99.90;;;;;;5032263;28;20060;-71
2023/07/08 01:06:31;;;;;;;8.00;4.00;;;17.90;99.90;;;;;;5032188;28;20443;-71
2023/07/08 01:09:04;;;;;;;7.53;3.50;;;17.80;99.90;;;;;;5031567;28;20065;-71
2023/07/08 01:11:32;;;;;;;7.60;3.80;;;17.80;99.90;;;;;;5032375;28;20049;-71
2023/07/08 01:13:59;;;;;;;7.73;3.40;;;17.80;99.90;;;;;;5032512;28;20046;-70
2023/07/08 01:16:25;;;;;;;6.03;3.87;;;17.80;99.90;;;;;;5032584;28;20045;-71
2023/07/08 01:18:55;;;;;;;8.30;3.77;;;17.80;99.90;;;;;;5032172;28;20564;-71
2023/07/08 01:21:35;;;;;;;8.33;3.73;;;17.70;99.90;;;;;;5032135;28;20050;-71
2023/07/08 01:24:04;;;;;;;8.70;3.93;;;17.80;99.90;;;;;;5032176;28;20532;-71
2023/07/08 01:26:31;;;;;;;7.53;3.77;;;17.70;99.90;;;;;;5032160;28;20085;-72
2023/07/08 01:28:58;;;;;;;10.03;3.93;;;17.70;99.90;;;;;;5032691;28;20053;-71
2023/07/08 01:31:24;;;;;;;7.13;4.10;;;17.70;99.90;;;;;;5033583;28;20045;-71
2023/07/08 01:33:51;;;;;;;7.00;4.07;;;17.70;99.90;;;;;;5035900;28;20049;-71
2023/07/08 01:36:18;;;;;;;7.60;4.30;;;17.70;99.90;;;;;;5036369;28;20137;-71
2023/07/08 01:38:45;;;;;;;10.17;3.97;;;17.60;99.90;;;;;;5035973;28;20084;-71
2023/07/08 01:41:12;;;;;;;8.27;3.60;;;17.60;99.90;;;;;;5036262;28;20055;-71
2023/07/08 01:43:38;;;;;;;7.43;4.20;;;17.60;99.90;;;;;;5035880;28;20464;-71
2023/07/08 01:46:09;;;;;;;7.77;3.60;;;17.60;99.90;;;;;;5035191;28;20081;-71
2023/07/08 01:48:39;;;;;;;7.60;3.87;;;17.60;99.90;;;;;;5035850;28;20092;-72
2023/07/08 01:51:06;;;;;;;9.47;4.20;;;17.50;99.90;;;;;;5035972;28;20049;-71
2023/07/08 01:53:35;;;;;;;8.87;4.17;;;17.50;99.90;;;;;;5035247;28;20045;-72
2023/07/08 01:56:02;;;;;;;8.30;4.17;;;17.50;99.90;;;;;;5035858;28;20120;-71
2023/07/08 01:58:29;;;;;;;9.43;4.03;;;17.50;99.90;;;;;;5034584;28;20384;-71
2023/07/08 02:00:55;;;;;;;9.37;4.10;;;17.50;99.90;;;;;;5035500;28;20056;-71
2023/07/08 02:03:21;;;;;;;6.97;4.13;;;17.50;99.90;;;;;;5035863;28;20037;-71
2023/07/08 02:05:47;;;;;;;10.50;4.10;;;17.40;99.90;;;;;;5035404;28;20049;-71
2023/07/08 02:08:12;;;;;;;6.53;3.67;;;17.40;99.90;;;;;;5034043;28;20049;-71
2023/07/08 02:10:40;;;;;;;11.50;4.13;;;17.40;99.90;;;;;;5035281;28;20045;-71
2023/07/08 02:13:06;;;;;;;8.93;3.83;;;17.50;99.90;;;;;;5034406;28;20163;-71
2023/07/08 02:15:32;;;;;;;8.33;4.23;;;17.40;99.90;;;;;;5035509;28;20488;-71
2023/07/08 02:17:58;;;;;;;7.97;4.07;;;17.40;99.90;;;;;;5017675;28;20510;-71
2023/07/08 02:20:24;;;;;;;8.83;4.23;;;17.40;99.90;;;;;;5035557;28;20050;-71
2023/07/08 02:22:49;;;;;;;8.73;3.97;;;17.30;99.90;;;;;;5034659;28;20069;-71
2023/07/08 02:25:15;;;;;;;6.67;4.00;;;17.40;99.90;;;;;;5035440;28;20266;-71
2023/07/08 02:27:42;;;;;;;7.53;4.20;;;17.40;99.90;;;;;;5017587;28;20049;-71
2023/07/08 02:30:09;;;;;;;8.03;3.73;;;17.30;99.90;;;;;;5035265;28;20139;-71
2023/07/08 02:32:35;;;;;;;8.23;4.07;;;17.30;99.90;;;;;;5035192;28;20053;-71
2023/07/08 02:35:05;;;;;;;9.90;4.70;;;17.30;99.90;;;;;;5035092;28;20080;-71
2023/07/08 02:37:30;;;;;;;8.70;4.13;;;17.30;99.90;;;;;;5035086;28;20049;-71
2023/07/08 02:39:56;;;;;;;6.90;4.13;;;17.20;99.90;;;;;;5033904;28;20179;-72
2023/07/08 02:42:22;;;;;;;8.70;4.60;;;17.20;99.90;;;;;;5034261;28;20128;-71
2023/07/08 02:44:47;;;;;;;8.63;4.40;;;17.20;99.90;;;;;;5032994;28;20072;-71
2023/07/08 02:47:13;;;;;;;8.90;4.57;;;17.20;99.90;;;;;;5035042;28;20528;-71
2023/07/08 02:49:39;;;;;;;7.27;4.33;;;17.10;99.90;;;;;;5034764;28;20402;-72
2023/07/08 02:52:05;;;;;;;7.97;4.67;;;17.10;99.90;;;;;;5033797;28;20081;-71
2023/07/08 02:54:30;;;;;;;7.67;4.53;;;17.10;99.90;;;;;;5033690;28;20053;-71
2023/07/08 02:56:56;;;;;;;8.83;4.37;;;17.10;99.90;;;;;;5033388;28;20045;-71
2023/07/08 02:59:21;;;;;;;7.07;4.27;;;17.10;99.90;;;;;;5033849;28;20482;-71
2023/07/08 03:01:47;;;;;;;6.67;4.30;;;17.10;99.90;;;;;;5033449;28;20462;-71
2023/07/08 03:04:14;;;;;;;8.10;4.00;;;17.10;99.90;;;;;;5034793;28;20068;-71
2023/07/08 03:06:43;;;;;;;8.97;4.83;;;17.10;99.90;;;;;;5034588;28;20132;-75
2023/07/08 03:09:11;;;;;;;11.23;4.53;;;17.00;99.90;;;;;;5034484;28;20092;-71
2023/07/08 03:11:38;;;;;;;8.37;5.00;;;17.00;99.90;;;;;;5034524;28;20057;-71
2023/07/08 03:14:05;;;;;;;8.87;5.00;;;17.00;99.90;;;;;;5034158;28;20288;-71
2023/07/08 03:16:31;;;;;;;9.17;4.20;;;17.00;99.90;;;;;;5034482;28;20087;-71
2023/07/08 03:18:56;;;;;;;6.70;4.00;;;17.00;99.90;;;;;;5034155;28;20689;-71
2023/07/08 03:21:22;;;;;;;7.33;4.50;;;17.00;99.90;;;;;;5034389;28;20048;-71
2023/07/08 03:23:50;;;;;;;7.43;4.67;;;17.00;99.90;;;;;;5033996;28;20053;-71
2023/07/08 03:26:18;;;;;;;10.10;5.13;;;17.00;99.90;;;;;;5034422;28;20288;-71
2023/07/08 03:28:45;;;;;;;7.67;4.30;;;17.00;99.90;;;;;;5033902;28;20053;-71
2023/07/08 03:31:10;;;;;;;9.23;4.73;;;16.90;99.90;;;;;;5034043;28;20816;-71
2023/07/08 03:33:37;;;;;;;7.57;4.47;;;16.90;99.90;;;;;;5032775;28;20041;-71
2023/07/08 03:36:04;;;;;;;6.77;4.57;;;17.00;99.90;;;;;;5033847;28;20060;-72
2023/07/08 03:38:30;;;;;;;7.70;4.43;;;16.90;99.90;;;;;;5034009;28;20280;-70
2023/07/08 03:40:55;;;;;;;7.63;4.40;;;17.00;99.90;;;;;;5016041;28;20477;-70
2023/07/08 03:43:21;;;;;;;7.87;4.83;;;17.00;99.90;;;;;;5032880;28;20042;-70
2023/07/08 03:45:47;;;;;;;9.03;4.60;;;16.90;99.90;;;;;;5033593;28;20180;-71
2023/07/08 03:48:13;;;;;;;8.43;4.60;;;16.90;99.90;;;;;;5032824;28;20053;-71
2023/07/08 03:50:39;;;;;;;11.20;5.47;;;16.90;99.90;;;;;;5033848;28;20052;-71
2023/07/08 03:53:05;;;;;;;9.13;4.40;;;16.90;99.90;;;;;;5032248;28;20421;-71
2023/07/08 03:55:30;;;;;;;6.93;4.37;;;16.90;99.90;;;;;;5032505;28;20073;-71
2023/07/08 03:57:56;;;;;;;11.67;5.13;;;16.90;99.90;;;;;;5033463;28;20042;-71
2023/07/08 04:00:22;;;;;;;8.53;4.80;;;16.80;99.90;;;;;;5033604;28;20064;-71
2023/07/08 04:02:48;;;;;;;8.03;4.90;;;16.80;99.90;;;;;;5032256;28;20549;-73
2023/07/08 04:05:16;;;;;;;8.37;4.53;;;16.80;99.90;;;;;;5033459;28;20041;-71
2023/07/08 04:07:42;;;;;;;7.77;4.53;;;16.80;99.90;;;;;;5033514;28;20049;-71
2023/07/08 04:10:12;;;;;;;9.80;4.90;;;16.80;99.90;;;;;;5032004;28;20164;-71
2023/07/08 04:12:38;;;;;;;7.90;4.73;;;16.80;99.90;;;;;;5033263;28;20085;-72
2023/07/08 04:15:05;;;;;;;7.67;4.87;;;16.80;99.90;;;;;;5033149;28;20053;-72
2023/07/08 04:17:30;;;;;;;6.93;4.40;;;16.90;99.90;;;;;;5033248;28;20104;-72
2023/07/08 04:19:56;;;;;;;10.13;4.80;;;16.90;99.90;;;;;;5032953;28;20288;-72
2023/07/08 04:22:23;;;;;;;9.10;4.87;;;16.90;99.90;;;;;;5033210;28;20389;-72
2023/07/08 04:24:49;;;;;;;7.90;4.23;;;16.90;99.90;;;;;;5033190;28;20255;-79
2023/07/08 04:27:16;;;;;;;9.73;5.03;;;16.90;99.90;;;;;;5033130;28;20415;-72
2023/07/08 04:29:43;;;;;;;9.97;5.00;;;16.90;99.90;;;;;;5033103;28;20147;-72
2023/07/08 04:32:10;;;;;;;7.70;4.90;;;16.90;99.90;;;;;;5031553;28;20128;-72
2023/07/08 04:34:35;;;;;;;8.03;4.53;;;16.90;99.90;;;;;;5032963;28;20050;-72
2023/07/08 04:37:01;;;;;;;7.90;5.00;;;17.00;99.90;;;;;;5031903;28;20056;-72
2023/07/08 04:39:27;;;;;;;8.17;5.37;;;17.00;99.90;;;;;;5032901;28;20072;-72
2023/07/08 04:41:53;;;;;;;7.67;5.27;;;17.10;99.90;;;;;;5032719;28;20045;-73
2023/07/08 04:44:19;;;;;;;7.13;4.20;;;17.10;99.90;;;;;;5032926;28;20464;-72
2023/07/08 04:46:52;;;;;;;8.43;4.70;;;17.20;99.90;;;;;;5032908;28;20041;-72
2023/07/08 04:49:18;;;;;;;7.20;4.57;;;17.20;99.90;;;;;;5031895;28;20049;-72
2023/07/08 04:51:44;;;;;;;7.93;4.90;;;17.30;99.90;;;;;;5032660;28;20067;-72
2023/07/08 04:54:10;;;;;;;8.27;4.97;;;17.40;99.90;;;;;;5032217;28;20156;-71
2023/07/08 04:56:42;;;;;;;6.53;4.47;;;17.40;99.90;;;;;;5032897;28;20049;-71
2023/07/08 04:59:10;;;;;;;7.87;4.30;;;17.50;99.90;;;;;;5015000;28;20057;-71
2023/07/08 05:01:37;;;;;;;9.67;4.60;;;17.60;99.90;;;;;;5031774;28;20284;-71
2023/07/08 05:04:05;;;;;;;8.93;4.80;;;17.70;99.90;;;;;;5032470;28;20050;-72
2023/07/08 05:06:31;;;;;;;7.03;4.57;;;17.80;99.90;;;;;;5034184;28;20120;-72
2023/07/08 05:08:58;;;;;;;9.53;4.53;;;17.90;99.90;;;;;;5036517;28;20114;-72
2023/07/08 05:11:24;;;;;;;8.90;4.87;;;18.00;99.90;;;;;;5036874;28;20128;-72
2023/07/08 05:13:50;;;;;;;11.50;4.90;;;18.10;99.90;;;;;;5036428;28;20145;-71
2023/07/08 05:16:16;;;;;;;8.23;4.70;;;18.30;99.90;;;;;;5036348;28;20132;-71
2023/07/08 05:18:42;;;;;;;11.80;5.40;;;18.30;99.90;;;;;;5036504;28;20133;-71
2023/07/08 05:21:09;;;;;;;12.87;5.40;;;18.40;99.90;;;;;;5036301;28;20057;-72
2023/07/08 05:23:35;;;;;;;8.93;4.80;;;18.60;99.90;;;;;;5036476;28;20061;-72
2023/07/08 05:26:01;;;;;;;9.70;4.07;;;18.70;99.90;;;;;;5035172;28;20056;-72
2023/07/08 05:28:27;;;;;;;6.40;4.23;;;18.80;99.90;;;;;;5035570;28;20368;-72
2023/07/08 05:30:55;;;;;;;9.60;4.70;;;18.90;99.90;;;;;;5035587;28;20056;-72
2023/07/08 05:33:22;;;;;;;8.80;4.77;;;19.00;99.90;;;;;;5034835;28;20397;-72
2023/07/08 05:35:48;;;;;;;7.27;4.23;;;19.20;99.90;;;;;;5036264;28;20050;-72
2023/07/08 05:38:14;;;;;;;8.73;4.33;;;19.30;99.90;;;;;;5036033;28;20108;-72
2023/07/08 05:40:39;;;;;;;10.67;4.40;;;19.40;99.90;;;;;;5036162;28;20056;-71
2023/07/08 05:43:05;;;;;;;7.33;4.27;;;19.50;99.90;;;;;;5034786;28;20056;-72
2023/07/08 05:45:31;;;;;;;7.50;4.27;;;19.70;99.90;;;;;;5036103;28;20466;-72
2023/07/08 05:47:56;;;;;;;6.37;4.27;;;19.80;99.90;;;;;;5036040;28;20052;-72
2023/07/08 05:50:22;;;;;;;7.17;4.00;;;20.00;99.90;;;;;;5034720;28;20088;-72
2023/07/08 05:52:48;;;;;;;7.03;4.40;;;20.20;99.90;;;;;;5034668;28;20041;-72
2023/07/08 05:55:14;;;;;;;10.23;4.40;;;20.70;99.90;;;;;;5035659;28;20053;-72
2023/07/08 05:57:39;;;;;;;5.90;3.70;;;21.80;99.90;;;;;;5018469;28;20060;-72
2023/07/08 06:00:06;;;;;;;6.20;4.10;;;23.00;99.90;;;;;;5035545;28;20081;-72
2023/07/08 06:02:32;;;;;;;6.17;3.80;;;23.70;98.90;;;;;;5036088;28;20522;-72
2023/07/08 06:04:57;;;;;;;5.57;3.43;;;24.50;96.80;;;;;;5035735;28;20140;-72
2023/07/08 06:07:23;;;;;;;8.47;3.63;;;25.10;91.20;;;;;;5035210;28;20049;-72
2023/07/08 06:09:49;;;;;;;8.57;4.00;;;25.90;90.60;;;;;;5034936;28;20048;-72
2023/07/08 06:12:14;;;;;;;7.10;3.97;;;26.40;83.00;;;;;;5035338;28;20048;-73
2023/07/08 06:14:40;;;;;;;7.23;3.77;;;26.90;77.20;;;;;;5035524;28;20054;-71
2023/07/08 06:17:07;;;;;;;5.57;3.33;;;27.20;67.20;;;;;;5033934;28;20041;-73
2023/07/08 06:19:33;;;;;;;7.03;3.60;;;27.80;64.10;;;;;;5035394;28;20046;-73
2023/07/08 06:21:59;;;;;;;5.30;3.17;;;28.10;59.60;;;;;;5035433;28;20044;-73
2023/07/08 06:24:24;;;;;;;8.67;3.87;;;28.90;58.40;;;;;;5034935;28;20057;-73
2023/07/08 06:26:50;;;;;;;7.17;3.57;;;29.10;55.90;;;;;;5035368;28;20071;-73
2023/07/08 06:29:16;;;;;;;5.87;3.50;;;29.40;53.60;;;;;;5034825;28;20517;-73
2023/07/08 06:31:42;;;;;;;5.80;3.23;;;29.50;54.30;;;;;;5035167;28;20053;-73
2023/07/08 06:34:07;;;;;;;5.33;3.13;;;29.70;51.70;;;;;;5033439;28;20401;-71
2023/07/08 06:36:33;;;;;;;6.63;3.70;;;30.00;51.50;;;;;;5035200;28;20132;-73
2023/07/08 06:38:59;;;;;;;5.90;2.97;;;30.30;50.90;;;;;;5035168;28;20408;-73
2023/07/08 06:41:25;;;;;;;6.40;2.97;;;30.20;50.00;;;;;;5017440;28;20616;-71
2023/07/08 06:43:50;;;;;;;11.53;3.57;;;30.60;49.60;;;;;;5034966;28;20397;-73
2023/07/08 06:46:18;;;;;;;5.73;3.30;;;30.60;48.10;;;;;;5033850;28;20064;-71
2023/07/08 06:48:44;;;;;;;6.05;3.03;;;30.80;48.50;;;;;;5034944;28;20052;-72
2023/07/08 06:51:10;;;;;;;7.97;3.17;;;30.90;47.20;;;;;;5034682;28;20046;-72
2023/07/08 06:53:35;;;;;;;5.30;3.03;;;31.00;47.20;;;;;;5035325;28;20374;-72
2023/07/08 06:56:02;;;;;;;8.27;3.45;;;31.50;47.00;;;;;;5034870;28;20061;-72
2023/07/08 06:58:28;;;;;;;6.07;3.13;;;31.50;45.90;;;;;;5034209;28;20910;-72
2023/07/08 07:00:53;;;;;;;5.72;2.92;;;31.80;45.20;;;;;;5034783;28;20045;-72
2023/07/08 07:03:19;;;;;;;6.70;3.38;;;31.80;44.70;;;;;;5034452;28;20120;-72
2023/07/08 07:05:45;;;;;;;7.40;3.45;;;32.20;44.50;;;;;;5034682;28;20060;-72
2023/07/08 07:08:11;;;;;;;7.35;3.38;;;32.30;43.90;;;;;;5033369;28;20125;-73
2023/07/08 07:10:37;;;;;;;4.70;2.90;;;32.20;44.10;;;;;;5034927;28;20136;-72
2023/07/08 07:13:02;;;;;;;7.20;3.10;;;32.50;44.20;;;;;;5034432;28;20045;-72
2023/07/08 07:15:30;;;;;;;5.25;2.97;;;32.70;43.70;;;;;;5034175;28;20047;-72
2023/07/08 07:17:56;;;;;;;5.78;3.60;;;32.60;42.80;;;;;;5034716;28;20055;-72
2023/07/08 07:20:22;;;;;;;5.85;3.25;;;32.80;43.20;;;;;;5034042;28;20534;-72
2023/07/08 07:22:48;;;;;;;6.65;3.38;;;32.70;42.80;;;;;;5034025;28;20136;-72
2023/07/08 07:25:13;;;;;;;4.63;2.70;;;32.80;42.50;;;;;;5033911;28;20072;-72
2023/07/08 07:27:39;;;;;;;5.63;3.45;;;32.50;42.30;;;;;;5033212;28;20391;-72
2023/07/08 07:30:05;;;;;;;7.90;3.40;;;32.40;42.60;;;;;;5033507;28;20042;-72
2023/07/08 07:32:32;;;;;;;10.85;3.42;;;32.30;43.20;;;;;;5032499;28;20060;-72
2023/07/08 07:34:59;;;;;;;4.75;3.15;;;32.40;43.20;;;;;;5034138;28;20049;-72
2023/07/08 07:37:25;;;;;;;5.05;3.28;;;32.60;42.00;;;;;;5033790;28;20462;-72
2023/07/08 07:39:51;;;;;;;6.72;2.90;;;32.70;42.90;;;;;;5034299;28;20046;-72
2023/07/08 07:42:19;;;;;;;8.48;3.38;;;33.30;42.50;;;;;;5033722;28;20437;-72
2023/07/08 07:44:45;;;;;;;6.78;3.40;;;33.20;41.30;;;;;;5033893;28;20050;-72
2023/07/08 07:47:12;;;;;;;5.30;3.25;;;33.30;41.90;;;;;;5033814;28;20049;-72
2023/07/08 07:49:38;;;;;;;8.02;3.20;;;33.60;41.50;;;;;;5033510;28;20057;-69
2023/07/08 07:52:04;;;;;;;7.88;3.10;;;33.30;41.60;;;;;;5033576;28;20375;-72
2023/07/08 07:54:30;;;;;;;7.70;3.45;;;33.20;42.30;;;;;;5033000;28;20515;-73
2023/07/08 07:56:56;;;;;;;5.05;2.90;;;33.30;42.30;;;;;;5033568;28;20041;-72
2023/07/08 07:59:22;;;;;;;4.53;3.05;;;33.00;42.00;;;;;;5033278;28;20053;-72
2023/07/08 08:01:47;;;;;;;7.55;3.20;;;33.10;42.10;;;;;;5033619;28;20081;-71
2023/07/08 08:04:13;;;;;;;6.80;3.75;;;32.70;41.80;;;;;;5033535;28;20084;-71
2023/07/08 08:06:39;;;;;;;5.07;3.35;;;33.00;42.20;;;;;;5015586;28;20056;-72
2023/07/08 08:09:06;;;;;;;6.32;3.40;;;33.30;42.10;;;;;;5032324;28;20073;-71
2023/07/08 08:11:32;;;;;;;6.63;3.38;;;33.60;41.50;;;;;;5033043;28;20049;-71
2023/07/08 08:13:58;;;;;;;6.32;3.40;;;33.60;41.20;;;;;;5033374;28;20049;-71
2023/07/08 08:16:23;;;;;;;6.47;2.72;;;33.80;41.40;;;;;;5032123;28;20401;-72
2023/07/08 08:18:49;;;;;;;5.13;3.33;;;34.20;41.40;;;;;;5033295;28;20041;-72
2023/07/08 08:21:15;;;;;;;5.55;3.53;;;34.40;41.30;;;;;;5033335;28;20246;-72
2023/07/08 08:23:42;;;;;;;5.75;3.53;;;34.30;41.00;;;;;;5033151;28;20057;-72
2023/07/08 08:26:08;;;;;;;7.65;3.60;;;34.30;40.50;;;;;;5033126;28;20111;-72
2023/07/08 08:28:33;;;;;;;4.95;3.15;;;34.40;40.90;;;;;;5031755;28;20053;-71
2023/07/08 08:30:59;;;;;;;6.93;3.08;;;34.80;41.10;;;;;;5033126;28;20053;-71
2023/07/08 08:33:25;;;;;;;5.28;3.30;;;35.00;40.70;;;;;;5032731;28;20045;-72
2023/07/08 08:35:50;;;;;;;4.97;3.38;;;35.00;39.70;;;;;;5032791;28;20049;-72
2023/07/08 08:38:17;;;;;;;6.43;3.45;;;34.40;40.10;;;;;;5031831;28;20083;-71
2023/07/08 08:40:43;;;;;;;5.88;3.53;;;34.40;40.60;;;;;;5031543;28;20052;-71
2023/07/08 08:43:14;;;;;;;6.40;3.15;;;34.20;40.60;;;;;;5032002;28;20037;-70
2023/07/08 08:45:56;;;;;;;5.00;3.00;;;34.30;40.80;;;;;;5032586;28;20148;-71
2023/07/08 08:48:24;;;;;;;5.30;2.92;;;34.20;40.90;;;;;;5032648;28;20482;-70
2023/07/08 08:51:03;;;;;;;8.15;3.10;;;33.70;41.00;;;;;;5031637;28;20089;-70
2023/07/08 08:53:29;;;;;;;5.55;3.20;;;33.20;40.60;;;;;;5032612;28;20041;-71
2023/07/08 08:56:00;;;;;;;8.02;3.15;;;32.70;42.70;;;;;;5032907;28;20128;-70
2023/07/08 08:58:37;;;;;;;5.15;2.90;;;32.20;43.30;;;;;;5032659;28;20397;-71
2023/07/08 09:01:08;;;;;;;4.90;3.03;;;31.90;44.00;;;;;;5032841;28;20045;-70
2023/07/08 09:03:37;;;;;;;5.28;3.05;;;31.50;43.70;;;;;;5032486;28;20046;-71
2023/07/08 09:06:11;;;;;;;6.03;3.20;;;31.00;44.40;;;;;;5032842;28;20136;-70
2023/07/08 09:08:37;;;;;;;5.32;3.13;;;30.50;45.10;;;;;;5032435;28;20060;-70
2023/07/08 09:11:34;;;;;;;4.97;3.17;;;30.10;45.50;;;;;;5032638;28;20081;-70
2023/07/08 09:13:59;;;;;;;6.15;3.20;;;29.50;46.40;;;;;;5032839;28;20041;-70
2023/07/08 09:16:55;;;;;;;5.30;2.83;;;29.30;47.10;;;;;;5031118;28;20115;-70
2023/07/08 09:19:30;;;;;;;8.38;2.90;;;29.30;47.70;;;;;;5032653;28;20052;-70
2023/07/08 09:22:08;;;;;;;4.30;2.75;;;29.20;47.70;;;;;;5031449;28;20140;-70
2023/07/08 09:24:45;;;;;;;5.60;2.78;;;29.30;48.60;;;;;;5032057;28;20145;-70
2023/07/08 09:27:11;;;;;;;6.35;3.28;;;29.20;48.60;;;;;;5032848;28;20041;-70
2023/07/08 09:29:37;;;;;;;8.20;2.80;;;29.10;48.80;;;;;;5032239;28;20076;-70
2023/07/08 09:32:24;;;;;;;5.53;2.70;;;29.00;49.20;;;;;;5032630;28;20033;-70
2023/07/08 09:34:51;;;;;;;5.50;2.65;;;28.90;49.80;;;;;;5032259;28;20085;-70
2023/07/08 09:37:25;;;;;;;5.57;3.10;;;28.80;50.30;;;;;;5032300;28;20046;-70
2023/07/08 09:39:55;;;;;;;5.22;2.70;;;28.70;50.00;;;;;;5032087;28;20045;-70
2023/07/08 09:42:24;;;;;;;9.70;3.25;;;28.80;50.50;;;;;;5032450;28;20091;-70
2023/07/08 09:44:58;;;;;;;6.57;3.17;;;28.90;50.90;;;;;;5032011;28;20059;-70
2023/07/08 09:47:30;;;;;;;5.70;3.25;;;28.80;51.30;;;;;;5032389;28;20049;-71
2023/07/08 09:49:57;;;;;;;5.03;2.65;;;28.60;51.70;;;;;;5032399;28;20049;-70
2023/07/08 09:52:23;;;;;;;5.32;3.00;;;28.70;52.20;;;;;;5032932;28;20050;-70
2023/07/08 09:54:49;;;;;;;9.27;3.88;;;28.70;52.60;;;;;;5035639;28;20051;-70
2023/07/08 09:57:18;;;;;;;6.85;3.22;;;28.70;52.70;;;;;;5034858;28;20116;-72
2023/07/08 09:59:49;;;;;;;6.70;3.15;;;28.60;52.80;;;;;;5035608;28;20485;-71
2023/07/08 10:02:35;;;;;;;7.35;3.40;;;28.40;53.10;;;;;;5034982;28;20050;-72
2023/07/08 10:05:19;;;;;;;5.05;3.40;;;28.40;54.20;;;;;;5021393;28;20050;-72
2023/07/08 10:07:47;;;;;;;8.20;3.17;;;28.40;54.80;;;;;;5035356;28;20042;-72
2023/07/08 10:10:17;;;;;;;8.40;3.28;;;28.50;55.50;;;;;;5035281;28;20776;-72
2023/07/08 10:12:59;;;;;;;6.38;2.97;;;28.50;55.30;;;;;;5035222;28;20088;-72
2023/07/08 10:15:53;;;;;;;6.05;3.35;;;28.60;54.30;;;;;;5035530;28;20045;-72
2023/07/08 10:18:26;;;;;;;5.05;3.00;;;28.60;55.10;;;;;;5035489;28;20056;-72
2023/07/08 10:21:26;;;;;;;5.07;3.35;;;28.50;55.10;;;;;;5034877;28;20095;-73
2023/07/08 10:24:15;;;;;;;8.88;3.42;;;28.50;54.90;;;;;;5015267;28;20069;-72
2023/07/08 10:26:42;;;;;;;6.88;3.47;;;28.50;56.40;;;;;;5015263;28;20058;-72
2023/07/08 10:29:39;;;;;;;6.75;3.20;;;28.60;56.70;;;;;;5014446;28;20142;-74
2023/07/08 10:32:23;;;;;;;6.22;3.22;;;28.60;55.00;;;;;;5015558;28;20046;-70
2023/07/08 10:34:55;;;;;;;6.50;3.60;;;28.60;53.90;;;;;;5015270;28;20053;-70
2023/07/08 10:37:56;;;;;;;7.30;2.90;;;28.50;54.50;;;;;;5015172;28;20781;-75
2023/07/08 10:40:34;;;;;;;5.80;3.13;;;28.50;55.20;;;;;;5015262;28;20065;-71
2023/07/08 10:43:31;;;;;;;5.38;3.08;;;28.50;55.20;;;;;;5015240;28;20056;-74
2023/07/08 10:46:00;;;;;;;7.47;4.32;;;28.50;55.70;;;;;;5013533;28;20541;-74
2023/07/08 10:48:29;;;;;;;5.60;3.30;;;28.60;56.50;;;;;;5014257;28;20061;-72
2023/07/08 10:51:05;;;;;;;5.50;3.07;;;28.60;54.40;;;;;;5014781;28;20132;-73
2023/07/08 10:53:49;;;;;;;7.07;3.30;;;28.70;55.20;;;;;;5015070;28;20096;-72
2023/07/08 10:56:21;;;;;;;6.70;3.00;;;28.70;54.60;;;;;;5014131;28;20056;-73
2023/07/08 10:59:23;;;;;;;6.23;3.30;;;28.60;55.60;;;;;;5013509;28;20046;-72
2023/07/08 11:02:00;;;;;;;6.63;3.00;;;28.70;54.00;;;;;;4947911;28;20498;-72
2023/07/08 11:04:49;;;;;;;6.68;3.55;;;28.80;55.10;;;;;;5013887;28;20060;-73
2023/07/08 11:07:30;;;;;;;6.60;3.25;;;28.80;54.50;;;;;;5014883;28;20120;-71
2023/07/08 11:10:01;;;;;;;6.27;3.20;;;28.90;54.40;;;;;;5014493;28;20050;-71
2023/07/08 11:12:36;;;;;;;6.83;3.80;;;28.90;54.30;;;;;;5016744;28;20049;-74
2023/07/08 11:15:23;;;;;;;7.57;3.92;;;29.00;54.90;;;;;;5033343;28;20049;-74
2023/07/08 11:17:58;;;;;;;6.27;3.57;;;29.10;54.30;;;;;;5034119;28;20080;-74
2023/07/08 11:20:48;;;;;;;5.60;3.40;;;29.00;54.20;;;;;;5034388;28;20045;-73
2023/07/08 11:23:32;;;;;;;6.05;3.45;;;29.00;54.20;;;;;;5049460;28;20055;-72
2023/07/08 11:26:28;;;;;;;8.60;3.40;;;29.00;53.80;;;;;;5033995;28;20107;-73
2023/07/08 11:28:59;;;;;;;5.90;3.47;;;29.10;51.70;;;;;;5033852;28;20057;-73
2023/07/08 11:31:30;;;;;;;7.17;3.30;;;29.10;49.80;;;;;;5034279;28;20049;-72
2023/07/08 11:33:58;;;;;;;6.55;3.80;;;29.20;50.00;;;;;;5033784;28;20128;-72
2023/07/08 11:36:26;;;;;;;6.90;3.87;;;29.20;50.30;;;;;;5016744;28;20053;-71
2023/07/08 11:38:55;;;;;;;8.70;4.25;;;29.20;50.60;;;;;;5032809;28;20045;-72
2023/07/08 11:41:28;;;;;;;6.70;3.53;;;29.20;49.60;;;;;;5033936;28;20053;-72
2023/07/08 11:44:04;;;;;;;6.10;3.20;;;29.20;49.70;;;;;;5033590;28;20045;-72
2023/07/08 11:46:32;;;;;;;5.30;3.47;;;29.30;49.20;;;;;;5034015;28;20045;-72
2023/07/08 11:49:11;;;;;;;7.30;3.70;;;29.30;49.80;;;;;;5032488;28;20109;-72
2023/07/08 11:51:39;;;;;;;5.68;3.30;;;29.30;49.90;;;;;;5033828;28;20128;-75
2023/07/08 11:54:19;;;;;;;5.70;3.38;;;29.40;50.60;;;;;;5033434;28;20327;-74
2023/07/08 11:56:56;;;;;;;8.02;3.28;;;29.40;50.80;;;;;;5033456;28;20060;-70
2023/07/08 11:59:25;;;;;;;6.10;3.47;;;29.50;50.70;;;;;;5033611;28;20045;-72
2023/07/08 12:01:53;;;;;;;7.10;3.22;;;29.60;50.60;;;;;;5033373;28;20092;-73
2023/07/08 12:04:28;;;;;;;6.88;4.18;;;29.60;51.10;;;;;;5033593;28;20107;-73
2023/07/08 12:07:08;;;;;;;5.97;3.50;;;29.60;51.00;;;;;;5049046;28;20489;-74
2023/07/08 12:09:45;;;;;;;6.20;3.47;;;29.60;50.90;;;;;;5033575;28;20080;-73
2023/07/08 12:12:20;;;;;;;7.05;4.15;;;29.60;50.40;;;;;;5032116;28;20128;-72
2023/07/08 12:14:46;;;;;;;5.90;3.15;;;29.60;50.60;;;;;;5032979;28;20152;-73
2023/07/08 12:17:14;;;;;;;5.00;3.00;;;29.60;51.00;;;;;;5033347;28;20087;-73
2023/07/08 12:19:44;;;;;;;6.75;3.55;;;29.60;50.90;;;;;;5048928;28;20061;-72
2023/07/08 12:22:14;;;;;;;8.45;3.58;;;29.70;51.40;;;;;;5033050;28;20050;-72
2023/07/08 12:24:40;;;;;;;6.53;3.60;;;29.70;50.70;;;;;;5032796;28;20111;-71
2023/07/08 12:27:08;;;;;;;7.68;3.60;;;29.80;50.40;;;;;;5033012;28;20052;-70
2023/07/08 12:29:34;;;;;;;4.97;3.20;;;29.80;50.10;;;;;;5033144;28;20056;-70
2023/07/08 12:32:00;;;;;;;5.80;3.60;;;29.80;49.80;;;;;;5032738;28;20042;-69
2023/07/08 12:34:26;;;;;;;6.25;3.65;;;29.80;49.50;;;;;;5032055;28;20151;-70
2023/07/08 12:36:53;;;;;;;5.57;3.60;;;29.80;49.60;;;;;;5032698;28;20112;-70
2023/07/08 12:39:21;;;;;;;8.45;3.20;;;29.70;49.20;;;;;;5033282;28;20045;-70
2023/07/08 12:41:47;;;;;;;5.47;3.75;;;29.80;49.00;;;;;;5033097;28;20046;-70
2023/07/08 12:44:25;;;;;;;6.43;4.00;;;29.80;49.40;;;;;;5032621;28;20056;-70
2023/07/08 12:46:53;;;;;;;8.50;3.60;;;29.70;48.70;;;;;;5048331;28;20061;-71
2023/07/08 12:49:20;;;;;;;6.55;3.72;;;29.70;49.70;;;;;;5033139;28;20052;-70
2023/07/08 12:51:47;;;;;;;5.97;3.50;;;29.70;50.00;;;;;;5032795;28;20045;-70
2023/07/08 12:54:13;;;;;;;6.25;3.15;;;29.70;50.10;;;;;;5032413;28;20048;-70
2023/07/08 12:56:44;;;;;;;6.10;3.22;;;29.70;50.00;;;;;;5032743;28;20456;-70